createdAt,value
2018-05-25T00:01:39.927Z,100377
2018-05-25T00:04:06.123Z,100385
2018-05-25T00:06:32.280Z,100388
2018-05-25T00:08:59.189Z,100388
2018-05-25T00:11:25.352Z,100385
2018-05-25T00:13:52.074Z,100385
2018-05-25T00:16:18.278Z,100384
2018-05-25T00:18:44.457Z,100384
2018-05-25T00:21:10.601Z,100379
2018-05-25T00:23:37.561Z,100381
2018-05-25T00:26:04.491Z,100382
2018-05-25T00:28:30.665Z,100381
2018-05-25T00:30:56.908Z,100381
2018-05-25T00:33:23.077Z,100381
2018-05-25T00:35:49.246Z,100382
2018-05-25T00:38:15.472Z,100385
2018-05-25T00:40:41.679Z,100379
2018-05-25T00:43:07.878Z,100382
2018-05-25T00:45:34.081Z,100382
2018-05-25T00:48:01.000Z,100377
2018-05-25T00:50:27.177Z,100377
2018-05-25T00:52:53.387Z,100371
2018-05-25T00:55:38.112Z,100369
2018-05-25T00:58:04.281Z,100366
2018-05-25T01:00:31.210Z,100373
2018-05-25T01:02:57.933Z,100374
2018-05-25T01:05:24.142Z,100379
2018-05-25T01:07:50.339Z,100379
2018-05-25T01:10:16.501Z,100378
2018-05-25T01:12:42.669Z,100376
2018-05-25T01:15:08.870Z,100368
2018-05-25T01:17:35.033Z,100365
2018-05-25T01:20:01.221Z,100375
2018-05-25T01:22:28.150Z,100376
2018-05-25T01:24:54.310Z,100373
2018-05-25T01:27:21.207Z,100370
2018-05-25T01:29:47.381Z,100373
2018-05-25T01:32:14.298Z,100367
2018-05-25T01:34:40.488Z,100364
2018-05-25T01:37:06.689Z,100361
2018-05-25T01:39:33.620Z,100360
2018-05-25T01:41:59.790Z,100362
2018-05-25T01:44:26.816Z,100359
2018-05-25T01:46:53.032Z,100361
2018-05-25T01:49:19.249Z,100360
2018-05-25T01:51:45.421Z,100358
2018-05-25T01:54:12.362Z,100359
2018-05-25T01:56:38.666Z,100364
2018-05-25T01:59:04.847Z,100367
2018-05-25T02:01:32.489Z,100374
2018-05-25T02:03:58.664Z,100375
2018-05-25T02:06:24.856Z,100373
2018-05-25T02:08:51.066Z,100373
2018-05-25T02:11:17.377Z,100372
2018-05-25T02:13:43.566Z,100371
2018-05-25T02:16:10.521Z,100368
2018-05-25T02:18:36.712Z,100366
2018-05-25T02:21:02.874Z,100366
2018-05-25T02:23:29.025Z,100363
2018-05-25T02:25:55.213Z,100355
2018-05-25T02:28:21.393Z,100358
2018-05-25T02:30:48.326Z,100365
2018-05-25T02:33:14.510Z,100373
2018-05-25T02:35:41.415Z,100375
2018-05-25T02:38:07.614Z,100371
2018-05-25T02:40:34.561Z,100368
2018-05-25T02:43:00.779Z,100367
2018-05-25T02:45:27.649Z,100366
2018-05-25T02:47:53.862Z,100367
2018-05-25T02:50:20.050Z,100372
2018-05-25T02:52:46.207Z,100365
2018-05-25T02:55:13.138Z,100369
2018-05-25T02:57:39.305Z,100370
2018-05-25T03:00:06.210Z,100366
2018-05-25T03:02:32.420Z,100363
2018-05-25T03:04:58.585Z,100363
2018-05-25T03:07:24.779Z,100357
2018-05-25T03:09:50.969Z,100358
2018-05-25T03:12:17.408Z,100361
2018-05-25T03:14:43.593Z,100357
2018-05-25T03:17:09.764Z,100357
2018-05-25T03:19:36.137Z,100359
2018-05-25T03:22:03.066Z,100358
2018-05-25T03:24:29.980Z,100364
2018-05-25T03:26:56.166Z,100367
2018-05-25T03:29:22.375Z,100367
2018-05-25T03:31:48.569Z,100366
2018-05-25T03:34:14.715Z,100367
2018-05-25T03:36:40.907Z,100364
2018-05-25T03:39:07.829Z,100363
2018-05-25T03:41:34.763Z,100372
2018-05-25T03:44:00.947Z,100373
2018-05-25T03:46:27.117Z,100380
2018-05-25T03:48:53.289Z,100382
2018-05-25T03:51:19.508Z,100383
2018-05-25T03:53:45.704Z,100380
2018-05-25T03:56:11.869Z,100380
2018-05-25T04:01:59.097Z,100384
2018-05-25T04:04:26.084Z,100385
2018-05-25T04:06:52.257Z,100386
2018-05-25T04:09:18.443Z,100385
2018-05-25T04:11:45.348Z,100383
2018-05-25T04:14:11.742Z,100381
2018-05-25T04:16:37.913Z,100383
2018-05-25T04:19:04.114Z,100380
2018-05-25T04:21:30.305Z,100383
2018-05-25T04:23:57.267Z,100375
2018-05-25T04:26:24.163Z,100377
2018-05-25T04:28:50.322Z,100378
2018-05-25T04:31:16.494Z,100380
2018-05-25T04:33:42.682Z,100391
2018-05-25T04:36:08.850Z,100391
2018-05-25T04:38:35.793Z,100395
2018-05-25T04:41:02.861Z,100399
2018-05-25T04:43:29.060Z,100400
2018-05-25T04:45:55.268Z,100402
2018-05-25T04:48:23.654Z,100397
2018-05-25T04:50:49.804Z,100397
2018-05-25T04:53:16.023Z,100394
2018-05-25T04:55:42.232Z,100394
2018-05-25T04:58:08.501Z,100394
2018-05-25T05:00:34.714Z,100398
2018-05-25T05:03:00.911Z,100396
2018-05-25T05:05:27.172Z,100396
2018-05-25T05:07:53.384Z,100395
2018-05-25T05:10:19.525Z,100397
2018-05-25T05:12:46.454Z,100402
2018-05-25T05:15:13.591Z,100398
2018-05-25T05:17:39.746Z,100394
2018-05-25T05:20:05.967Z,100391
2018-05-25T05:22:32.170Z,100386
2018-05-25T05:24:58.386Z,100378
2018-05-25T05:27:24.609Z,100372
2018-05-25T05:29:50.769Z,100364
2018-05-25T05:32:16.942Z,100358
2018-05-25T05:34:43.110Z,100356
2018-05-25T05:37:10.032Z,100357
2018-05-25T05:39:36.222Z,100356
2018-05-25T05:42:02.420Z,100360
2018-05-25T05:44:29.562Z,100363
2018-05-25T05:46:55.763Z,100362
2018-05-25T05:49:21.936Z,100374
2018-05-25T05:51:48.957Z,100377
2018-05-25T05:54:15.152Z,100385
2018-05-25T05:56:41.334Z,100382
2018-05-25T05:59:07.506Z,100370
2018-05-25T06:01:33.954Z,100369
2018-05-25T06:04:00.160Z,100375
2018-05-25T06:06:27.092Z,100361
2018-05-25T06:08:53.274Z,100364
2018-05-25T06:11:19.527Z,100368
2018-05-25T06:13:45.711Z,100372
2018-05-25T06:16:11.909Z,100371
2018-05-25T06:18:38.109Z,100374
2018-05-25T06:21:04.313Z,100374
2018-05-25T06:23:31.232Z,100375
2018-05-25T06:25:57.414Z,100369
2018-05-25T06:28:23.605Z,100375
2018-05-25T06:30:49.757Z,100385
2018-05-25T06:33:16.001Z,100389
2018-05-25T06:35:42.888Z,100386
2018-05-25T06:38:09.077Z,100390
2018-05-25T06:40:35.994Z,100397
2018-05-25T06:43:02.207Z,100394
2018-05-25T06:45:28.361Z,100394
2018-05-25T06:47:56.021Z,100385
2018-05-25T06:50:22.181Z,100389
2018-05-25T06:52:49.104Z,100389
2018-05-25T06:55:15.300Z,100394
2018-05-25T06:57:41.488Z,100393
2018-05-25T07:00:08.416Z,100382
2018-05-25T07:02:34.621Z,100387
2018-05-25T07:05:00.796Z,100384
2018-05-25T07:07:27.170Z,100378
2018-05-25T07:09:53.340Z,100377
2018-05-25T07:12:19.528Z,100373
2018-05-25T07:14:46.458Z,100370
2018-05-25T07:17:12.614Z,100376
2018-05-25T07:19:38.804Z,100376
2018-05-25T07:22:04.955Z,100379
2018-05-25T07:24:31.113Z,100384
2018-05-25T07:26:57.286Z,100384
2018-05-25T07:29:23.468Z,100382
2018-05-25T07:31:49.724Z,100373
2018-05-25T07:34:16.644Z,100374
2018-05-25T07:36:42.814Z,100377
2018-05-25T07:39:08.997Z,100376
2018-05-25T07:41:35.169Z,100378
2018-05-25T07:44:01.339Z,100375
2018-05-25T07:46:28.156Z,100376
2018-05-25T07:48:55.066Z,100377
2018-05-25T07:51:22.112Z,100369
2018-05-25T07:53:48.261Z,100367
2018-05-25T07:56:14.431Z,100372
2018-05-25T07:58:41.343Z,100365
2018-05-25T08:01:07.526Z,100366
2018-05-25T08:03:33.758Z,100359
2018-05-25T08:05:59.913Z,100364
2018-05-25T08:08:26.333Z,100363
2018-05-25T08:10:52.474Z,100364
2018-05-25T08:13:18.653Z,100361
2018-05-25T08:15:44.813Z,100353
2018-05-25T08:18:12.258Z,100361
2018-05-25T08:20:38.401Z,100358
2018-05-25T08:23:04.559Z,100356
2018-05-25T08:25:37.781Z,100360
2018-05-25T08:28:03.945Z,100352
2018-05-25T08:30:30.114Z,100355
2018-05-25T08:32:56.278Z,100355
2018-05-25T08:35:22.412Z,100360
2018-05-25T08:37:48.544Z,100356
2018-05-25T08:40:15.501Z,100349
2018-05-25T08:42:41.684Z,100357
2018-05-25T08:45:08.604Z,100349
2018-05-25T08:47:34.785Z,100350
2018-05-25T08:50:00.937Z,100347
2018-05-25T08:52:27.129Z,100345
2018-05-25T08:54:53.277Z,100361
2018-05-25T08:57:19.496Z,100345
2018-05-25T08:59:46.385Z,100350
2018-05-25T09:02:12.536Z,100354
2018-05-25T09:04:38.682Z,100336
2018-05-25T09:07:04.901Z,100342
2018-05-25T09:09:31.345Z,100339
2018-05-25T09:11:58.113Z,100331
2018-05-25T09:14:25.034Z,100338
2018-05-25T09:16:51.190Z,100338
2018-05-25T09:19:17.921Z,100338
2018-05-25T09:21:44.146Z,100342
2018-05-25T09:24:10.293Z,100337
2018-05-25T09:26:36.492Z,100336
2018-05-25T09:29:02.673Z,100333
2018-05-25T09:31:28.829Z,100343
2018-05-25T09:33:55.732Z,100338
2018-05-25T09:36:21.981Z,100333
2018-05-25T09:38:48.139Z,100330
2018-05-25T09:41:15.372Z,100337
2018-05-25T09:43:41.537Z,100334
2018-05-25T09:46:07.707Z,100329
2018-05-25T09:48:33.897Z,100329
2018-05-25T09:51:00.826Z,100329
2018-05-25T09:53:26.997Z,100331
2018-05-25T09:55:53.177Z,100326
2018-05-25T09:58:19.354Z,100323
2018-05-25T10:00:46.302Z,100330
2018-05-25T10:03:12.551Z,100331
2018-05-25T10:05:39.211Z,100324
2018-05-25T10:08:05.363Z,100322
2018-05-25T10:10:31.566Z,100323
2018-05-25T10:12:57.996Z,100317
2018-05-25T10:15:24.902Z,100321
2018-05-25T10:17:51.109Z,100313
2018-05-25T10:20:17.277Z,100322
2018-05-25T10:22:43.453Z,100322
2018-05-25T10:25:10.338Z,100313
2018-05-25T10:27:36.497Z,100309
2018-05-25T10:30:02.664Z,100299
2018-05-25T10:32:28.837Z,100305
2018-05-25T10:34:55.011Z,100303
2018-05-25T10:37:21.173Z,100304
2018-05-25T10:39:47.333Z,100299
2018-05-25T10:42:13.487Z,100312
2018-05-25T10:44:40.329Z,100304
2018-05-25T10:47:06.481Z,100296
2018-05-25T10:49:32.721Z,100298
2018-05-25T10:51:59.640Z,100295
2018-05-25T10:54:25.800Z,100300
2018-05-25T10:56:52.030Z,100296
2018-05-25T10:59:18.949Z,100288
2018-05-25T11:01:45.157Z,100284
2018-05-25T11:04:12.058Z,100294
2018-05-25T11:06:38.225Z,100296
2018-05-25T11:09:05.113Z,100293
2018-05-25T11:11:31.281Z,100291
2018-05-25T11:13:58.222Z,100294
2018-05-25T11:16:24.389Z,100286
2018-05-25T11:18:51.309Z,100275
2018-05-25T11:21:17.509Z,100283
2018-05-25T11:23:44.382Z,100277
2018-05-25T11:26:10.567Z,100274
2018-05-25T11:28:36.740Z,100280
2018-05-25T11:31:02.887Z,100266
2018-05-25T11:33:29.043Z,100265
2018-05-25T11:35:55.208Z,100278
2018-05-25T11:38:21.377Z,100283
2018-05-25T11:40:47.581Z,100276
2018-05-25T11:43:13.792Z,100271
2018-05-25T11:45:39.981Z,100270
2018-05-25T11:48:06.133Z,100264
2018-05-25T11:50:32.313Z,100267
2018-05-25T11:52:58.777Z,100260
2018-05-25T11:55:24.926Z,100254
2018-05-25T11:57:51.091Z,100256
2018-05-25T12:00:18.044Z,100250
2018-05-25T12:02:44.212Z,100253
2018-05-25T12:05:10.355Z,100257
2018-05-25T12:07:36.509Z,100258
2018-05-25T12:10:03.887Z,100257
2018-05-25T12:12:30.067Z,100254
2018-05-25T12:14:56.232Z,100243
2018-05-25T12:17:22.435Z,100238
2018-05-25T12:19:48.609Z,100245
2018-05-25T12:22:14.813Z,100237
2018-05-25T12:24:48.165Z,100232
2018-05-25T12:27:15.093Z,100239
2018-05-25T12:29:41.269Z,100244
2018-05-25T12:32:07.422Z,100240
2018-05-25T12:34:33.624Z,100242
2018-05-25T12:37:00.505Z,100238
2018-05-25T12:39:26.691Z,100229
2018-05-25T12:41:53.781Z,100238
2018-05-25T12:44:19.955Z,100225
2018-05-25T12:46:46.133Z,100225
2018-05-25T12:49:13.013Z,100230
2018-05-25T12:51:39.209Z,100217
2018-05-25T12:54:05.404Z,100210
2018-05-25T12:56:31.565Z,100221
2018-05-25T12:58:58.474Z,100216
2018-05-25T13:01:24.617Z,100217
2018-05-25T13:03:50.804Z,100218
2018-05-25T13:06:16.959Z,100216
2018-05-25T13:08:43.166Z,100213
2018-05-25T13:11:10.053Z,100212
2018-05-25T13:13:36.278Z,100212
2018-05-25T13:16:02.420Z,100212
2018-05-25T13:18:28.681Z,100205
2018-05-25T13:20:54.860Z,100208
2018-05-25T13:23:21.081Z,100202
2018-05-25T13:25:47.282Z,100207
2018-05-25T13:28:13.426Z,100213
2018-05-25T13:30:40.101Z,100208
2018-05-25T13:33:07.006Z,100205
2018-05-25T13:35:33.189Z,100206
2018-05-25T13:37:59.354Z,100196
2018-05-25T13:40:25.500Z,100197
2018-05-25T13:42:51.678Z,100204
2018-05-25T13:45:17.873Z,100211
2018-05-25T13:47:44.069Z,100204
2018-05-25T13:50:10.229Z,100203
2018-05-25T13:52:36.382Z,100202
2018-05-25T13:55:02.561Z,100197
2018-05-25T13:57:28.748Z,100201
2018-05-25T13:59:54.933Z,100197
2018-05-25T14:02:21.120Z,100199
2018-05-25T14:04:54.228Z,100200
2018-05-25T14:07:28.161Z,100200
2018-05-25T14:09:54.388Z,100201
2018-05-25T14:12:20.577Z,100195
2018-05-25T14:14:46.749Z,100199
2018-05-25T14:17:12.948Z,100200
2018-05-25T14:19:39.116Z,100197
2018-05-25T14:22:06.021Z,100197
2018-05-25T14:24:32.201Z,100200
2018-05-25T14:26:59.107Z,100200
2018-05-25T14:29:25.282Z,100202
2018-05-25T14:31:51.925Z,100201
2018-05-25T14:34:18.845Z,100194
2018-05-25T14:36:45.031Z,100194
2018-05-25T14:39:11.205Z,100196
2018-05-25T14:41:38.177Z,100185
2018-05-25T14:44:05.095Z,100187
2018-05-25T14:46:31.267Z,100182
2018-05-25T14:48:58.170Z,100185
2018-05-25T14:51:31.198Z,100194
2018-05-25T14:53:58.164Z,100192
2018-05-25T14:56:24.323Z,100193
2018-05-25T14:58:50.490Z,100198
2018-05-25T15:01:24.390Z,100195
2018-05-25T15:03:50.590Z,100201
2018-05-25T15:06:16.760Z,100199
2018-05-25T15:08:42.929Z,100200
2018-05-25T15:11:09.093Z,100198
2018-05-25T15:13:35.252Z,100193
2018-05-25T15:16:01.413Z,100190
2018-05-25T15:18:27.574Z,100187
2018-05-25T15:20:53.767Z,100187
2018-05-25T15:23:19.900Z,100189
2018-05-25T15:25:46.057Z,100194
2018-05-25T15:28:12.214Z,100188
2018-05-25T15:30:38.377Z,100189
2018-05-25T15:33:04.868Z,100188
2018-05-25T15:35:31.065Z,100184
2018-05-25T15:37:57.212Z,100184
2018-05-25T15:40:23.367Z,100183
2018-05-25T15:42:49.525Z,100180
2018-05-25T15:45:16.409Z,100189
2018-05-25T15:47:42.528Z,100183
2018-05-25T15:50:08.750Z,100187
2018-05-25T15:52:35.632Z,100185
2018-05-25T15:55:02.531Z,100186
2018-05-25T15:57:29.421Z,100184
2018-05-25T15:59:55.528Z,100192
2018-05-25T16:02:21.747Z,100189
2018-05-25T16:04:47.926Z,100191
2018-05-25T16:07:14.105Z,100197
2018-05-25T16:09:40.417Z,100194
2018-05-25T16:12:06.565Z,100196
2018-05-25T16:14:32.725Z,100189
2018-05-25T16:16:59.597Z,100193
2018-05-25T16:19:25.760Z,100190
2018-05-25T16:21:51.908Z,100194
2018-05-25T16:24:18.065Z,100191
2018-05-25T16:26:44.222Z,100192
2018-05-25T16:29:10.369Z,100195
2018-05-25T16:31:36.507Z,100198
2018-05-25T16:34:02.639Z,100194
2018-05-25T16:36:28.830Z,100201
2018-05-25T16:38:55.705Z,100203
2018-05-25T16:41:21.869Z,100206
2018-05-25T16:43:48.043Z,100204
2018-05-25T16:46:14.242Z,100202
2018-05-25T16:48:40.371Z,100205
2018-05-25T16:51:06.542Z,100208
2018-05-25T16:53:32.683Z,100208
2018-05-25T16:55:58.930Z,100212
2018-05-25T16:58:25.040Z,100217
2018-05-25T17:00:51.181Z,100214
2018-05-25T17:03:17.321Z,100217
2018-05-25T17:05:43.481Z,100218
2018-05-25T17:08:09.601Z,100222
2018-05-25T17:10:35.799Z,100222
2018-05-25T17:13:01.917Z,100222
2018-05-25T17:15:28.828Z,100225
2018-05-25T17:17:55.029Z,100233
2018-05-25T17:20:21.198Z,100229
2018-05-25T17:22:47.378Z,100232
2018-05-25T17:25:13.622Z,100233
2018-05-25T17:27:39.851Z,100236
2018-05-25T17:30:06.130Z,100243
2018-05-25T17:32:32.340Z,100247
2018-05-25T17:34:59.497Z,100250
2018-05-25T17:37:26.444Z,100247
2018-05-25T17:39:52.599Z,100245
2018-05-25T17:42:19.694Z,100251
2018-05-25T17:44:45.985Z,100247
2018-05-25T17:47:12.112Z,100249
2018-05-25T17:49:39.021Z,100251
2018-05-25T17:52:05.951Z,100253
2018-05-25T17:54:32.118Z,100253
2018-05-25T17:56:58.325Z,100253
2018-05-25T17:59:24.509Z,100250
2018-05-25T18:01:50.692Z,100246
2018-05-25T18:04:17.654Z,100252
2018-05-25T18:06:43.846Z,100252
2018-05-25T18:09:09.975Z,100252
2018-05-25T18:11:36.093Z,100254
2018-05-25T18:14:02.589Z,100261
2018-05-25T18:16:28.744Z,100265
2018-05-25T18:18:54.876Z,100266
2018-05-25T18:21:21.818Z,100269
2018-05-25T18:23:47.982Z,100267
2018-05-25T18:26:14.840Z,100270
2018-05-25T18:28:41.001Z,100264
2018-05-25T18:31:07.147Z,100266
2018-05-25T18:33:33.299Z,100265
2018-05-25T18:35:59.447Z,100264
2018-05-25T18:38:26.329Z,100268
2018-05-25T18:40:52.473Z,100270
2018-05-25T18:43:18.616Z,100271
2018-05-25T18:45:44.766Z,100270
2018-05-25T18:48:12.250Z,100274
2018-05-25T18:50:39.141Z,100271
2018-05-25T18:53:05.277Z,100272
2018-05-25T18:55:31.462Z,100278
2018-05-25T18:57:58.365Z,100280
2018-05-25T19:00:24.550Z,100284
2018-05-25T19:02:50.704Z,100285
2018-05-25T19:05:17.621Z,100288
2018-05-25T19:07:43.749Z,100291
2018-05-25T19:10:09.994Z,100294
2018-05-25T19:12:37.171Z,100297
2018-05-25T19:15:04.040Z,100303
2018-05-25T19:17:30.210Z,100304
2018-05-25T19:19:56.423Z,100311
2018-05-25T19:22:22.509Z,100313
2018-05-25T19:24:49.441Z,100322
2018-05-25T19:27:15.594Z,100326
2018-05-25T19:29:41.762Z,100327
2018-05-25T19:32:07.938Z,100325
2018-05-25T19:34:35.550Z,100334
2018-05-25T19:37:01.738Z,100339
2018-05-25T19:39:27.874Z,100338
2018-05-25T19:41:54.769Z,100339
2018-05-25T19:44:20.957Z,100347
2018-05-25T19:46:47.165Z,100351
2018-05-25T19:49:13.413Z,100351
2018-05-25T19:51:39.578Z,100359
2018-05-25T19:54:06.477Z,100358
2018-05-25T19:56:32.652Z,100360
2018-05-25T19:58:58.796Z,100361
2018-05-25T20:01:25.692Z,100360
2018-05-25T20:03:51.835Z,100359
2018-05-25T20:06:18.014Z,100355
2018-05-25T20:08:45.764Z,100357
2018-05-25T20:11:11.904Z,100358
2018-05-25T20:13:38.253Z,100361
2018-05-25T20:16:04.452Z,100360
2018-05-25T20:18:30.578Z,100358
2018-05-25T20:20:56.734Z,100357
2018-05-25T20:23:22.870Z,100357
2018-05-25T20:25:49.024Z,100365
2018-05-25T20:28:15.909Z,100361
2018-05-25T20:30:42.041Z,100369
2018-05-25T20:33:08.177Z,100373
2018-05-25T20:35:34.362Z,100371
2018-05-25T20:38:01.289Z,100372
2018-05-25T20:40:27.441Z,100365
2018-05-25T20:42:54.313Z,100365
2018-05-25T20:45:20.461Z,100361
2018-05-25T20:47:46.777Z,100363
2018-05-25T20:50:13.049Z,100364
2018-05-25T20:52:39.206Z,100365
2018-05-25T20:55:05.341Z,100367
2018-05-25T20:57:31.535Z,100372
2018-05-25T20:59:58.005Z,100373
2018-05-25T21:02:24.142Z,100368
2018-05-25T21:07:53.996Z,100376
2018-05-25T21:10:20.184Z,100393
2018-05-25T21:12:46.550Z,100397
2018-05-25T21:15:12.784Z,100392
2018-05-25T21:17:39.669Z,100384
2018-05-25T21:20:05.787Z,100382
2018-05-25T21:22:32.701Z,100376
2018-05-25T21:24:58.919Z,100380
2018-05-25T21:27:25.221Z,100392
2018-05-25T21:29:52.114Z,100396
2018-05-25T21:32:18.320Z,100394
2018-05-25T21:34:44.539Z,100393
2018-05-25T21:37:10.696Z,100394
2018-05-25T21:39:36.870Z,100394
2018-05-25T21:42:03.003Z,100400
2018-05-25T21:44:29.213Z,100408
2018-05-25T21:46:55.372Z,100411
2018-05-25T21:49:21.498Z,100409
2018-05-25T21:51:47.643Z,100413
2018-05-25T21:54:14.509Z,100412
2018-05-25T21:56:40.694Z,100414
2018-05-25T21:59:06.832Z,100413
2018-05-25T22:01:33.955Z,100412
2018-05-25T22:04:00.134Z,100417
2018-05-25T22:06:26.264Z,100413
2018-05-25T22:08:53.889Z,100421
2018-05-25T22:11:20.030Z,100430
2018-05-25T22:13:46.157Z,100430
2018-05-25T22:16:12.289Z,100427
2018-05-25T22:18:38.438Z,100428
2018-05-25T22:21:04.582Z,100431
2018-05-25T22:23:30.721Z,100429
2018-05-25T22:25:56.850Z,100427
2018-05-25T22:28:22.989Z,100426
2018-05-25T22:30:49.258Z,100427
2018-05-25T22:33:15.654Z,100423
2018-05-25T22:35:41.793Z,100429
2018-05-25T22:38:07.976Z,100431
2018-05-25T22:40:34.113Z,100437
2018-05-25T22:43:18.974Z,100434
2018-05-25T22:46:10.907Z,100431
2018-05-25T22:49:01.973Z,100434
2018-05-25T22:51:52.875Z,100427
2018-05-25T22:54:31.463Z,100432
2018-05-25T22:56:58.349Z,100429
2018-05-25T22:59:24.490Z,100426
2018-05-25T23:01:50.670Z,100423
2018-05-25T23:04:17.599Z,100436
2018-05-25T23:06:43.778Z,100436
2018-05-25T23:09:09.955Z,100439
2018-05-25T23:11:36.110Z,100442
2018-05-25T23:14:03.009Z,100449
2018-05-25T23:16:29.166Z,100451
2018-05-25T23:18:55.344Z,100451
2018-05-25T23:21:21.516Z,100449
2018-05-25T23:23:47.685Z,100445
2018-05-25T23:26:13.829Z,100447
2018-05-25T23:28:40.733Z,100459
2018-05-25T23:31:06.921Z,100458
2018-05-25T23:33:34.692Z,100464
2018-05-25T23:36:01.585Z,100464
2018-05-25T23:38:27.761Z,100462
2018-05-25T23:40:54.655Z,100462
2018-05-25T23:43:20.806Z,100461
2018-05-25T23:45:46.974Z,100462
2018-05-25T23:48:13.876Z,100459
2018-05-25T23:50:40.074Z,100459
2018-05-25T23:53:06.257Z,100456
2018-05-25T23:55:32.424Z,100459
2018-05-25T23:57:59.333Z,100459
